Time;durP1;ratioP1;P1;durP2;ratioP2;P2;SDS_P1;SDS_P2;PMS_P1;PMS_P2;Temp;Humidity;BMP_temperature;BMP_pressure;BME280_temperature;BME280_humidity;BME280_pressure;Samples;Min_cycle;Max_cycle;Signal;HPM_P1;HPM_P2
2021/01/13 00:01:36;;;;;;;12.38;5.63;;;;;;;;;;5036836;28;20498;-77
2021/01/13 00:04:21;;;;;;;11.60;6.28;;;;;;;;;;5028869;28;20566;-78
2021/01/13 00:07:07;;;;;;;13.70;6.60;;;;;;;;;;5027619;28;20037;-78
2021/01/13 00:09:52;;;;;;;9.27;5.85;;;;;;;;;;5028909;28;20768;-79
2021/01/13 00:12:38;;;;;;;9.15;5.90;;;;;;;;;;5030886;28;20684;-78
2021/01/13 00:15:23;;;;;;;10.80;6.20;;;;;;;;;;5027516;28;20494;-77
2021/01/13 00:18:08;;;;;;;13.57;5.82;;;;;;;;;;5028111;28;20108;-78
2021/01/13 00:20:54;;;;;;;11.98;6.28;;;;;;;;;;5029062;28;20040;-78
2021/01/13 00:23:44;;;;;;;10.93;5.55;;;;;;;;;;5026196;28;20466;-78
2021/01/13 00:26:29;;;;;;;13.60;6.97;;;;;;;;;;5032409;28;20028;-78
2021/01/13 00:29:15;;;;;;;12.75;6.53;;;;;;;;;;5032368;28;20186;-77
2021/01/13 00:32:01;;;;;;;11.38;6.22;;;;;;;;;;5029998;28;20159;-78
2021/01/13 00:34:46;;;;;;;15.90;6.88;;;;;;;;;;5028583;28;20028;-78
2021/01/13 00:37:34;;;;;;;12.95;6.70;;;;;;;;;;5027577;28;20030;-78
2021/01/13 00:40:19;;;;;;;14.50;8.73;;;;;;;;;;5020721;28;20488;-79
2021/01/13 00:43:04;;;;;;;11.98;7.32;;;;;;;;;;5030302;28;20548;-77
2021/01/13 00:45:49;;;;;;;11.00;6.35;;;;;;;;;;5030236;28;20115;-77
2021/01/13 00:48:34;;;;;;;13.82;6.95;;;;;;;;;;5031750;28;20383;-77
2021/01/13 00:51:20;;;;;;;11.48;6.63;;;;;;;;;;5028681;28;20021;-77
2021/01/13 00:54:05;;;;;;;14.88;7.22;;;;;;;;;;5033956;28;20461;-77
2021/01/13 00:56:50;;;;;;;9.88;6.93;;;;;;;;;;5030891;28;20036;-77
2021/01/13 00:59:36;;;;;;;13.85;7.78;;;;;;;;;;5031368;28;20032;-77
2021/01/13 01:02:21;;;;;;;11.90;6.95;;;;;;;;;;5032078;28;20066;-77
2021/01/13 01:05:07;;;;;;;12.20;6.40;;;;;;;;;;5034319;28;20158;-77
2021/01/13 01:07:52;;;;;;;27.73;9.90;;;;;;;;;;5026813;28;20064;-77
2021/01/13 01:10:38;;;;;;;12.30;6.95;;;;;;;;;;5026043;28;20041;-77
2021/01/13 01:13:23;;;;;;;10.25;6.80;;;;;;;;;;5033971;28;20029;-77
2021/01/13 01:16:08;;;;;;;10.88;7.10;;;;;;;;;;5030997;28;20021;-77
2021/01/13 01:18:54;;;;;;;10.18;6.50;;;;;;;;;;5032420;28;20044;-78
2021/01/13 01:21:44;;;;;;;14.13;7.82;;;;;;;;;;5024827;28;20083;-77
2021/01/13 01:24:30;;;;;;;9.80;6.45;;;;;;;;;;5036093;28;20024;-77
2021/01/13 01:27:15;;;;;;;10.68;6.30;;;;;;;;;;5033189;28;20128;-77
2021/01/13 01:30:00;;;;;;;10.35;5.82;;;;;;;;;;5029904;28;20116;-77
2021/01/13 01:32:46;;;;;;;11.55;6.13;;;;;;;;;;5032796;28;20119;-78
2021/01/13 01:35:31;;;;;;;10.98;6.38;;;;;;;;;;5032818;28;20431;-78
2021/01/13 01:38:16;;;;;;;12.25;6.90;;;;;;;;;;5032965;28;20055;-78
2021/01/13 01:41:06;;;;;;;11.45;6.60;;;;;;;;;;5033264;28;20020;-78
2021/01/13 01:43:51;;;;;;;13.63;7.18;;;;;;;;;;5034392;28;20488;-77
2021/01/13 01:46:38;;;;;;;12.35;7.10;;;;;;;;;;5032553;28;20033;-78
2021/01/13 01:49:23;;;;;;;9.70;6.43;;;;;;;;;;5034944;28;20017;-78
2021/01/13 01:52:15;;;;;;;13.80;7.50;;;;;;;;;;5030387;28;20043;-77
2021/01/13 01:55:02;;;;;;;12.70;6.32;;;;;;;;;;5035455;28;20017;-77
2021/01/13 01:57:49;;;;;;;12.63;6.00;;;;;;;;;;5032685;28;20051;-77
2021/01/13 02:00:35;;;;;;;15.65;6.85;;;;;;;;;;5033107;28;20052;-78
2021/01/13 02:03:21;;;;;;;11.18;6.40;;;;;;;;;;5034402;28;20043;-78
2021/01/13 02:06:07;;;;;;;11.52;5.70;;;;;;;;;;5034118;28;20048;-78
2021/01/13 02:08:52;;;;;;;11.55;6.38;;;;;;;;;;5035785;28;20044;-78
2021/01/13 02:11:38;;;;;;;10.55;6.18;;;;;;;;;;5031058;28;20025;-77
2021/01/13 02:14:24;;;;;;;16.05;6.32;;;;;;;;;;5028360;28;20060;-77
2021/01/13 02:17:10;;;;;;;9.88;6.45;;;;;;;;;;5033921;28;20087;-77
2021/01/13 02:19:55;;;;;;;12.25;5.43;;;;;;;;;;5031103;28;20040;-77
2021/01/13 02:22:49;;;;;;;10.25;5.88;;;;;;;;;;5024483;28;20028;-78
2021/01/13 02:25:53;;;;;;;10.07;4.88;;;;;;;;;;5034097;28;20040;-78
2021/01/13 02:28:56;;;;;;;11.48;5.85;;;;;;;;;;5031432;28;20028;-78
2021/01/13 02:31:45;;;;;;;10.73;5.25;;;;;;;;;;5030462;28;21097;-78
2021/01/13 02:34:34;;;;;;;7.35;4.35;;;;;;;;;;5029077;28;20108;-78
2021/01/13 02:37:38;;;;;;;9.27;5.70;;;;;;;;;;5033441;28;20400;-78
2021/01/13 02:40:23;;;;;;;7.95;5.32;;;;;;;;;;5032491;28;20108;-78
2021/01/13 02:43:09;;;;;;;8.60;5.68;;;;;;;;;;5031713;28;20033;-78
2021/01/13 02:46:10;;;;;;;10.18;5.20;;;;;;;;;;5031042;28;20495;-78
2021/01/13 02:48:57;;;;;;;7.55;4.70;;;;;;;;;;5031091;28;20083;-78
2021/01/13 02:51:46;;;;;;;8.57;4.72;;;;;;;;;;5030433;28;20032;-78
2021/01/13 02:54:33;;;;;;;7.75;4.57;;;;;;;;;;5031387;28;20040;-78
2021/01/13 02:57:20;;;;;;;11.32;4.90;;;;;;;;;;5031521;28;20554;-78
2021/01/13 03:00:07;;;;;;;7.55;4.78;;;;;;;;;;5030199;28;20032;-78
2021/01/13 03:02:52;;;;;;;8.18;5.25;;;;;;;;;;5035696;28;20483;-78
2021/01/13 03:05:37;;;;;;;9.10;4.22;;;;;;;;;;5027780;28;20029;-78
2021/01/13 03:08:29;;;;;;;8.40;4.28;;;;;;;;;;5030287;28;20483;-78
2021/01/13 03:11:17;;;;;;;7.15;3.95;;;;;;;;;;5028172;28;20029;-78
2021/01/13 03:14:13;;;;;;;8.98;4.25;;;;;;;;;;5033751;28;20064;-78
2021/01/13 03:17:02;;;;;;;6.63;4.47;;;;;;;;;;5027759;28;20387;-78
2021/01/13 03:20:01;;;;;;;9.55;4.55;;;;;;;;;;5028630;28;20364;-78
2021/01/13 03:22:50;;;;;;;9.57;5.10;;;;;;;;;;5028120;28;20069;-78
2021/01/13 03:25:36;;;;;;;7.90;3.80;;;;;;;;;;5030512;28;20390;-78
2021/01/13 03:28:23;;;;;;;8.85;4.00;;;;;;;;;;5031348;28;20469;-78
2021/01/13 03:31:13;;;;;;;8.63;4.30;;;;;;;;;;5031762;28;20227;-76
2021/01/13 03:34:11;;;;;;;6.00;3.72;;;;;;;;;;5033776;28;20029;-77
2021/01/13 03:37:15;;;;;;;6.97;4.13;;;;;;;;;;5027734;28;20194;-79
2021/01/13 03:40:01;;;;;;;10.30;5.53;;;;;;;;;;5032804;28;20082;-77
2021/01/13 03:42:51;;;;;;;7.75;4.38;;;;;;;;;;5028920;28;20037;-78
2021/01/13 03:45:37;;;;;;;7.78;4.10;;;;;;;;;;5032535;28;20063;-78
2021/01/13 03:48:37;;;;;;;9.40;4.22;;;;;;;;;;5029684;28;20209;-78
2021/01/13 03:51:52;;;;;;;9.35;4.07;;;;;;;;;;5030203;28;20027;-77
2021/01/13 03:54:37;;;;;;;7.22;4.15;;;;;;;;;;5019189;28;20036;-76
2021/01/13 03:57:38;;;;;;;7.22;3.63;;;;;;;;;;5029373;28;20409;-76
2021/01/13 04:00:30;;;;;;;9.80;3.80;;;;;;;;;;5030171;28;20383;-79
2021/01/13 04:03:25;;;;;;;8.93;4.15;;;;;;;;;;5028804;28;20039;-77
2021/01/13 04:06:11;;;;;;;8.73;4.22;;;;;;;;;;5032767;28;20052;-77
2021/01/13 04:09:00;;;;;;;8.82;3.95;;;;;;;;;;5029880;28;20590;-77
2021/01/13 04:11:49;;;;;;;9.07;4.37;;;;;;;;;;5031691;28;20672;-78
2021/01/13 04:14:57;;;;;;;9.00;4.35;;;;;;;;;;5033186;28;20036;-77
2021/01/13 04:17:45;;;;;;;5.95;3.80;;;;;;;;;;5026337;28;20028;-77
2021/01/13 04:20:30;;;;;;;7.25;3.85;;;;;;;;;;5029207;28;20029;-77
2021/01/13 04:23:16;;;;;;;8.90;4.18;;;;;;;;;;5027658;28;20028;-76
2021/01/13 04:26:01;;;;;;;6.53;3.70;;;;;;;;;;5029243;28;20376;-76
2021/01/13 04:28:48;;;;;;;9.98;3.67;;;;;;;;;;5030541;28;20072;-76
2021/01/13 04:31:33;;;;;;;11.55;4.95;;;;;;;;;;5032396;28;20096;-76
2021/01/13 04:34:19;;;;;;;8.43;4.50;;;;;;;;;;5028332;28;20060;-76
2021/01/13 04:37:05;;;;;;;7.20;3.75;;;;;;;;;;5029677;28;20052;-77
2021/01/13 04:39:50;;;;;;;9.77;3.90;;;;;;;;;;5029480;28;20060;-77
2021/01/13 04:42:43;;;;;;;12.70;4.47;;;;;;;;;;5031494;28;20475;-76
2021/01/13 04:45:35;;;;;;;10.35;4.97;;;;;;;;;;5030526;28;20674;-77
2021/01/13 04:48:20;;;;;;;8.88;3.50;;;;;;;;;;5028493;28;20047;-77
2021/01/13 04:51:05;;;;;;;11.48;4.15;;;;;;;;;;5028766;28;20036;-76
2021/01/13 04:53:52;;;;;;;11.70;4.75;;;;;;;;;;5028357;28;20472;-77
2021/01/13 04:56:44;;;;;;;5.85;3.90;;;;;;;;;;5031867;28;20025;-77
2021/01/13 04:59:48;;;;;;;6.78;3.88;;;;;;;;;;5029767;28;20090;-77
2021/01/13 05:02:52;;;;;;;8.60;4.07;;;;;;;;;;5032056;28;20024;-77
2021/01/13 05:05:48;;;;;;;7.00;3.70;;;;;;;;;;5027836;28;20029;-77
2021/01/13 05:08:34;;;;;;;8.85;3.90;;;;;;;;;;5022678;28;20383;-77
2021/01/13 05:11:20;;;;;;;8.85;4.07;;;;;;;;;;5031148;28;20021;-76
2021/01/13 05:14:05;;;;;;;9.48;3.90;;;;;;;;;;5034374;28;20033;-78
2021/01/13 05:16:50;;;;;;;10.73;4.07;;;;;;;;;;5034648;28;20032;-78
2021/01/13 05:19:35;;;;;;;10.52;3.80;;;;;;;;;;5033070;28;20099;-76
2021/01/13 05:22:22;;;;;;;11.73;3.72;;;;;;;;;;5035066;28;20067;-77
2021/01/13 05:25:08;;;;;;;9.68;3.95;;;;;;;;;;5032595;28;20368;-76
2021/01/13 05:28:04;;;;;;;10.00;4.18;;;;;;;;;;5034020;28;20103;-76
2021/01/13 05:30:49;;;;;;;9.18;4.18;;;;;;;;;;5033922;28;20511;-77
2021/01/13 05:33:34;;;;;;;15.40;4.28;;;;;;;;;;5033643;28;20494;-77
2021/01/13 05:36:20;;;;;;;9.13;4.03;;;;;;;;;;5027437;28;20021;-77
2021/01/13 05:39:06;;;;;;;9.15;4.80;;;;;;;;;;5023614;28;20033;-78
2021/01/13 05:41:52;;;;;;;10.57;4.30;;;;;;;;;;5030534;28;20056;-78
2021/01/13 05:44:37;;;;;;;8.52;4.43;;;;;;;;;;5035698;28;20025;-78
2021/01/13 05:47:28;;;;;;;11.77;4.35;;;;;;;;;;5027316;28;20321;-78
2021/01/13 05:50:22;;;;;;;10.52;3.88;;;;;;;;;;5031753;28;20104;-79
2021/01/13 05:53:07;;;;;;;10.02;4.10;;;;;;;;;;5043076;28;20036;-79
2021/01/13 05:55:52;;;;;;;9.13;4.32;;;;;;;;;;5030234;28;20039;-78
2021/01/13 05:58:38;;;;;;;8.52;4.18;;;;;;;;;;5041454;28;20017;-77
2021/01/13 06:01:32;;;;;;;12.48;4.65;;;;;;;;;;5030495;28;20025;-78
2021/01/13 06:04:17;;;;;;;10.10;4.28;;;;;;;;;;5031028;28;20114;-78
2021/01/13 06:07:12;;;;;;;8.07;4.25;;;;;;;;;;5023245;28;20476;-78
2021/01/13 06:09:58;;;;;;;9.77;3.95;;;;;;;;;;5026911;28;20026;-78
2021/01/13 06:12:45;;;;;;;9.80;5.20;;;;;;;;;;5025591;28;20552;-78
2021/01/13 06:15:31;;;;;;;16.40;5.70;;;;;;;;;;5025305;28;20022;-78
2021/01/13 06:18:21;;;;;;;8.05;4.00;;;;;;;;;;5027441;28;20391;-78
2021/01/13 06:21:10;;;;;;;10.48;5.13;;;;;;;;;;5026870;28;20167;-78
2021/01/13 06:23:56;;;;;;;11.80;4.68;;;;;;;;;;5023480;28;20510;-78
2021/01/13 06:26:45;;;;;;;9.07;4.90;;;;;;;;;;5027137;28;20144;-78
2021/01/13 06:29:37;;;;;;;10.70;4.97;;;;;;;;;;5026379;28;20037;-78
2021/01/13 06:32:33;;;;;;;8.00;4.50;;;;;;;;;;5022784;28;20030;-77
2021/01/13 06:35:36;;;;;;;9.90;4.80;;;;;;;;;;5025693;28;20040;-78
2021/01/13 06:38:25;;;;;;;13.57;4.93;;;;;;;;;;5020323;28;20082;-78
2021/01/13 06:41:10;;;;;;;14.80;5.72;;;;;;;;;;5019537;28;20109;-78
2021/01/13 06:43:57;;;;;;;15.05;5.22;;;;;;;;;;5019975;28;20325;-79
2021/01/13 06:46:42;;;;;;;8.32;4.30;;;;;;;;;;5023758;28;20061;-78
2021/01/13 06:49:28;;;;;;;11.13;4.95;;;;;;;;;;5021388;28;20025;-76
2021/01/13 06:52:26;;;;;;;7.65;4.82;;;;;;;;;;5022515;28;20022;-76
2021/01/13 06:55:12;;;;;;;9.75;4.50;;;;;;;;;;5023586;28;20017;-76
2021/01/13 06:58:10;;;;;;;21.58;12.75;;;;;;;;;;5022897;28;20029;-76
2021/01/13 07:01:00;;;;;;;19.45;9.13;;;;;;;;;;5007436;28;20025;-76
2021/01/13 07:03:45;;;;;;;9.90;5.10;;;;;;;;;;5013506;28;20439;-76
2021/01/13 07:06:31;;;;;;;14.20;4.85;;;;;;;;;;5020641;28;20626;-76
2021/01/13 07:09:17;;;;;;;12.13;5.40;;;;;;;;;;5019141;28;20491;-79
2021/01/13 07:12:23;;;;;;;12.60;5.00;;;;;;;;;;5021832;28;20313;-79
2021/01/13 07:15:09;;;;;;;11.98;5.85;;;;;;;;;;5019697;28;20036;-78
2021/01/13 07:17:54;;;;;;;9.18;4.82;;;;;;;;;;5023976;28;20021;-77
2021/01/13 07:20:40;;;;;;;14.35;6.18;;;;;;;;;;5021010;28;20513;-75
2021/01/13 07:23:26;;;;;;;10.88;4.85;;;;;;;;;;5025727;28;20693;-77
2021/01/13 07:26:12;;;;;;;9.63;5.55;;;;;;;;;;5016150;28;20033;-76
2021/01/13 07:28:57;;;;;;;12.13;5.68;;;;;;;;;;5026991;28;20073;-76
2021/01/13 07:31:45;;;;;;;10.68;5.47;;;;;;;;;;5016012;28;20026;-76
2021/01/13 07:34:31;;;;;;;17.45;9.60;;;;;;;;;;5016888;28;20032;-78
2021/01/13 07:37:19;;;;;;;27.92;15.82;;;;;;;;;;5021911;28;20033;-76
2021/01/13 07:40:23;;;;;;;13.35;7.03;;;;;;;;;;5018201;28;20120;-76
2021/01/13 07:43:09;;;;;;;9.73;4.68;;;;;;;;;;5029654;28;20025;-77
2021/01/13 07:46:03;;;;;;;14.07;5.10;;;;;;;;;;5026119;28;20468;-76
2021/01/13 07:49:07;;;;;;;7.97;4.45;;;;;;;;;;5027672;28;20033;-76
2021/01/13 07:51:53;;;;;;;10.50;4.25;;;;;;;;;;5024227;28;20354;-77
2021/01/13 07:54:38;;;;;;;9.00;4.80;;;;;;;;;;5026303;28;20116;-77
2021/01/13 07:57:25;;;;;;;8.55;5.05;;;;;;;;;;5023655;28;20033;-77
2021/01/13 08:00:13;;;;;;;10.25;5.47;;;;;;;;;;5023669;28;20523;-77
2021/01/13 08:03:17;;;;;;;10.02;5.28;;;;;;;;;;5027056;28;20555;-78
2021/01/13 08:06:21;;;;;;;9.65;5.65;;;;;;;;;;5044915;28;20037;-77
2021/01/13 08:09:09;;;;;;;9.75;5.22;;;;;;;;;;5027393;28;20548;-77
2021/01/13 08:12:05;;;;;;;13.05;5.03;;;;;;;;;;5031058;28;20033;-77
2021/01/13 08:14:50;;;;;;;49.80;26.45;;;;;;;;;;5031609;28;20025;-77
2021/01/13 08:17:54;;;;;;;12.63;7.88;;;;;;;;;;5029987;28;20039;-77
2021/01/13 08:21:03;;;;;;;13.25;6.15;;;;;;;;;;5031895;28;20032;-77
2021/01/13 08:23:51;;;;;;;17.40;7.22;;;;;;;;;;5028797;28;20044;-77
2021/01/13 08:26:38;;;;;;;12.82;6.20;;;;;;;;;;5031969;28;20025;-77
2021/01/13 08:29:23;;;;;;;9.35;5.60;;;;;;;;;;5043667;28;20060;-79
2021/01/13 08:32:09;;;;;;;11.70;5.88;;;;;;;;;;5027032;28;20036;-78
2021/01/13 08:35:01;;;;;;;12.43;5.53;;;;;;;;;;5029282;28;20507;-79
2021/01/13 08:37:46;;;;;;;8.55;5.07;;;;;;;;;;5031952;28;20363;-78
2021/01/13 08:40:32;;;;;;;14.18;6.38;;;;;;;;;;5032860;28;20094;-78
2021/01/13 08:43:18;;;;;;;11.52;5.78;;;;;;;;;;5031640;28;20051;-79
2021/01/13 08:46:16;;;;;;;17.42;6.90;;;;;;;;;;5033066;28;20040;-78
2021/01/13 08:49:03;;;;;;;10.88;5.25;;;;;;;;;;5032922;28;20123;-79
2021/01/13 08:52:09;;;;;;;16.10;6.80;;;;;;;;;;5028761;28;20079;-78
2021/01/13 08:54:54;;;;;;;13.50;5.88;;;;;;;;;;5033204;28;20637;-79
2021/01/13 08:57:52;;;;;;;11.68;5.80;;;;;;;;;;5032455;28;20096;-79
2021/01/13 09:00:38;;;;;;;13.23;6.07;;;;;;;;;;5028553;28;20086;-79
2021/01/13 09:03:26;;;;;;;10.10;5.70;;;;;;;;;;5031547;28;20028;-80
2021/01/13 09:06:21;;;;;;;46.70;29.02;;;;;;;;;;5031946;28;20117;-77
2021/01/13 09:09:10;;;;;;;19.73;11.32;;;;;;;;;;5029408;28;20031;-78
2021/01/13 09:11:55;;;;;;;11.80;5.68;;;;;;;;;;5032611;28;20033;-78
2021/01/13 09:14:40;;;;;;;14.45;6.30;;;;;;;;;;5032173;28;20032;-78
2021/01/13 09:17:28;;;;;;;10.20;5.97;;;;;;;;;;5031304;28;20625;-78
2021/01/13 09:20:13;;;;;;;10.38;5.95;;;;;;;;;;5027453;28;20613;-78
2021/01/13 09:23:02;;;;;;;11.20;6.25;;;;;;;;;;5033568;28;20116;-78
2021/01/13 09:25:51;;;;;;;13.82;5.93;;;;;;;;;;5031587;28;20154;-77
2021/01/13 09:28:38;;;;;;;10.35;6.63;;;;;;;;;;5031273;28;20045;-79
2021/01/13 09:31:23;;;;;;;12.30;6.20;;;;;;;;;;5032696;28;20067;-78
2021/01/13 09:34:09;;;;;;;15.88;6.43;;;;;;;;;;5018771;28;20020;-77
2021/01/13 09:36:54;;;;;;;9.57;5.57;;;;;;;;;;5042485;28;20060;-77
2021/01/13 09:39:54;;;;;;;9.98;5.60;;;;;;;;;;5035901;28;20033;-78
2021/01/13 09:42:41;;;;;;;33.75;20.48;;;;;;;;;;5035936;28;20545;-77
2021/01/13 09:45:37;;;;;;;35.38;20.92;;;;;;;;;;5038255;28;20033;-77
2021/01/13 09:48:22;;;;;;;17.77;10.68;;;;;;;;;;5037896;28;20199;-76
2021/01/13 09:51:10;;;;;;;21.27;6.63;;;;;;;;;;5040431;28;20025;-77
2021/01/13 09:53:57;;;;;;;13.00;6.38;;;;;;;;;;5042223;28;20029;-77
2021/01/13 09:56:43;;;;;;;11.20;5.57;;;;;;;;;;5033429;28;20075;-77
2021/01/13 09:59:29;;;;;;;11.90;5.50;;;;;;;;;;5034391;28;20560;-77
2021/01/13 10:02:18;;;;;;;7.90;3.13;;;;;;;;;;5034605;28;20111;-77
2021/01/13 10:05:04;;;;;;;9.23;3.60;;;;;;;;;;5034773;28;20104;-77
2021/01/13 10:07:51;;;;;;;12.07;3.28;;;;;;;;;;5030051;28;20385;-77
2021/01/13 10:10:36;;;;;;;6.50;3.00;;;;;;;;;;5030863;28;20034;-76
2021/01/13 10:13:22;;;;;;;10.05;3.08;;;;;;;;;;5033681;28;20391;-76
2021/01/13 10:16:07;;;;;;;11.50;3.10;;;;;;;;;;5028517;28;20025;-76
2021/01/13 10:18:54;;;;;;;18.55;7.38;;;;;;;;;;5032043;28;20037;-77
2021/01/13 10:21:41;;;;;;;16.92;7.53;;;;;;;;;;5028756;28;20033;-78
2021/01/13 10:24:27;;;;;;;13.93;4.25;;;;;;;;;;5033441;28;20025;-77
2021/01/13 10:27:12;;;;;;;6.75;3.00;;;;;;;;;;5026118;28;20035;-77
2021/01/13 10:29:57;;;;;;;4.95;2.50;;;;;;;;;;5032656;28;20032;-78
2021/01/13 10:32:46;;;;;;;9.73;2.65;;;;;;;;;;5034620;28;20040;-78
2021/01/13 10:35:39;;;;;;;7.83;2.80;;;;;;;;;;5037604;28;20173;-78
2021/01/13 10:38:25;;;;;;;9.48;2.90;;;;;;;;;;5034386;28;20017;-77
2021/01/13 10:41:11;;;;;;;7.07;2.60;;;;;;;;;;5031824;28;20472;-78
2021/01/13 10:43:59;;;;;;;8.93;2.88;;;;;;;;;;5033682;28;20025;-77
2021/01/13 10:46:55;;;;;;;7.90;2.58;;;;;;;;;;5035463;28;20032;-77
2021/01/13 10:49:42;;;;;;;6.40;2.35;;;;;;;;;;5035808;28;20104;-78
2021/01/13 10:52:30;;;;;;;9.85;2.83;;;;;;;;;;5034314;28;20452;-77
2021/01/13 10:55:16;;;;;;;13.85;3.65;;;;;;;;;;5031585;28;20030;-76
2021/01/13 10:58:01;;;;;;;19.33;8.57;;;;;;;;;;5029214;28;20140;-76
2021/01/13 11:00:47;;;;;;;7.18;2.63;;;;;;;;;;5033936;28;20025;-77
2021/01/13 11:03:32;;;;;;;8.40;2.70;;;;;;;;;;5030949;28;20037;-78
2021/01/13 11:06:22;;;;;;;14.32;3.30;;;;;;;;;;5035200;28;20045;-78
2021/01/13 11:09:07;;;;;;;7.25;2.15;;;;;;;;;;5033263;28;20041;-76
2021/01/13 11:11:53;;;;;;;7.38;2.67;;;;;;;;;;5034244;28;20476;-77
2021/01/13 11:14:43;;;;;;;5.07;2.35;;;;;;;;;;5028882;28;20521;-77
2021/01/13 11:17:30;;;;;;;6.90;2.80;;;;;;;;;;5029619;28;20075;-77
2021/01/13 11:20:16;;;;;;;11.80;2.80;;;;;;;;;;5032670;28;20810;-76
2021/01/13 11:23:02;;;;;;;7.60;2.28;;;;;;;;;;5031094;28;20024;-78
2021/01/13 11:25:47;;;;;;;7.35;2.25;;;;;;;;;;5031550;28;20131;-78
2021/01/13 11:28:33;;;;;;;4.70;1.90;;;;;;;;;;5032728;28;20025;-78
2021/01/13 11:31:18;;;;;;;8.20;2.50;;;;;;;;;;5030833;28;20051;-78
2021/01/13 11:34:04;;;;;;;10.55;2.80;;;;;;;;;;5032937;28;20027;-78
2021/01/13 11:37:08;;;;;;;6.15;2.65;;;;;;;;;;5033496;28;20479;-77
2021/01/13 11:40:08;;;;;;;11.75;3.22;;;;;;;;;;5026951;28;20032;-77
2021/01/13 11:43:12;;;;;;;7.25;2.38;;;;;;;;;;5045014;28;20032;-77
2021/01/13 11:46:08;;;;;;;6.28;2.60;;;;;;;;;;5030581;28;20025;-78
2021/01/13 11:49:06;;;;;;;7.88;2.40;;;;;;;;;;5035517;28;20029;-78
2021/01/13 11:51:52;;;;;;;3.95;1.90;;;;;;;;;;5043777;28;20668;-77
2021/01/13 11:54:39;;;;;;;7.32;2.13;;;;;;;;;;5034606;28;20033;-77
2021/01/13 11:57:28;;;;;;;8.57;2.47;;;;;;;;;;5030881;28;20037;-77
2021/01/13 12:00:13;;;;;;;12.20;3.40;;;;;;;;;;5036102;28;20537;-78
2021/01/13 12:02:59;;;;;;;4.35;2.08;;;;;;;;;;5031319;28;20323;-77
2021/01/13 12:05:45;;;;;;;7.47;2.30;;;;;;;;;;5029951;28;20640;-77
2021/01/13 12:08:30;;;;;;;6.93;1.80;;;;;;;;;;5032064;28;20502;-77
2021/01/13 12:11:15;;;;;;;5.30;2.10;;;;;;;;;;5029165;28;20379;-77
2021/01/13 12:14:01;;;;;;;5.32;1.70;;;;;;;;;;5029844;28;20025;-77
2021/01/13 12:16:47;;;;;;;5.07;1.85;;;;;;;;;;5031323;28;20037;-77
2021/01/13 12:19:39;;;;;;;5.50;1.50;;;;;;;;;;5032906;28;20047;-77
2021/01/13 12:22:34;;;;;;;5.38;1.80;;;;;;;;;;5028645;28;20059;-77
2021/01/13 12:25:23;;;;;;;5.53;2.15;;;;;;;;;;5036354;28;20063;-76
2021/01/13 12:28:08;;;;;;;5.10;2.58;;;;;;;;;;5033068;28;20074;-76
2021/01/13 12:30:54;;;;;;;7.45;1.85;;;;;;;;;;5032492;28;20119;-77
2021/01/13 12:33:47;;;;;;;4.93;2.00;;;;;;;;;;5032428;28;20103;-77
2021/01/13 12:36:40;;;;;;;5.22;1.73;;;;;;;;;;5029612;28;20044;-77
2021/01/13 12:39:26;;;;;;;6.35;1.60;;;;;;;;;;5034698;28;20029;-77
2021/01/13 12:42:16;;;;;;;4.18;1.60;;;;;;;;;;5027982;28;20036;-77
2021/01/13 12:45:01;;;;;;;4.55;1.88;;;;;;;;;;5031458;28;20056;-76
2021/01/13 12:47:52;;;;;;;10.80;1.90;;;;;;;;;;5028969;28;20040;-76
2021/01/13 12:50:38;;;;;;;6.18;1.75;;;;;;;;;;5030343;28;20072;-75
2021/01/13 12:53:23;;;;;;;6.35;1.45;;;;;;;;;;5025272;28;20078;-76
2021/01/13 12:56:19;;;;;;;4.43;1.65;;;;;;;;;;5027887;28;20025;-76
2021/01/13 12:59:04;;;;;;;5.80;1.40;;;;;;;;;;5028803;28;20021;-74
2021/01/13 13:01:49;;;;;;;8.88;1.75;;;;;;;;;;5031638;28;20050;-75
2021/01/13 13:04:34;;;;;;;3.10;1.10;;;;;;;;;;5032774;28;20433;-76
2021/01/13 13:07:20;;;;;;;2.65;1.20;;;;;;;;;;5037719;28;20056;-75
2021/01/13 13:10:05;;;;;;;5.90;1.92;;;;;;;;;;5028799;28;20061;-75
2021/01/13 13:12:50;;;;;;;3.33;1.17;;;;;;;;;;5037774;28;20063;-76
2021/01/13 13:15:35;;;;;;;3.53;1.40;;;;;;;;;;5031546;28;20022;-76
2021/01/13 13:18:21;;;;;;;12.02;4.03;;;;;;;;;;5027988;28;20031;-76
2021/01/13 13:21:09;;;;;;;8.45;2.70;;;;;;;;;;5037806;28;20025;-76
2021/01/13 13:23:55;;;;;;;4.03;1.40;;;;;;;;;;5030661;28;20025;-76
2021/01/13 13:26:40;;;;;;;3.10;1.20;;;;;;;;;;5033401;28;20109;-77
2021/01/13 13:29:26;;;;;;;3.75;1.33;;;;;;;;;;5036751;28;20028;-76
2021/01/13 13:32:12;;;;;;;9.45;1.58;;;;;;;;;;5038281;28;20161;-75
2021/01/13 13:34:57;;;;;;;5.88;1.45;;;;;;;;;;5034034;28;20032;-74
2021/01/13 13:37:43;;;;;;;5.90;1.35;;;;;;;;;;5038718;28;20035;-75
2021/01/13 13:40:28;;;;;;;5.93;2.42;;;;;;;;;;5030444;28;21498;-75
2021/01/13 13:43:13;;;;;;;5.43;1.55;;;;;;;;;;5037680;28;20027;-75
2021/01/13 13:45:58;;;;;;;7.75;1.90;;;;;;;;;;5035304;28;20594;-78
2021/01/13 13:48:44;;;;;;;6.13;2.45;;;;;;;;;;5040069;28;20090;-73
2021/01/13 13:51:29;;;;;;;6.03;1.40;;;;;;;;;;5038147;28;20032;-76
2021/01/13 13:54:14;;;;;;;6.75;1.55;;;;;;;;;;5041642;28;20115;-75
2021/01/13 13:56:59;;;;;;;5.47;1.40;;;;;;;;;;5036736;28;20025;-77
2021/01/13 13:59:44;;;;;;;6.68;1.38;;;;;;;;;;5035296;28;20808;-76
2021/01/13 14:02:29;;;;;;;6.32;1.42;;;;;;;;;;5036443;28;20025;-76
2021/01/13 14:05:15;;;;;;;6.20;1.60;;;;;;;;;;5039896;28;20024;-74
2021/01/13 14:08:00;;;;;;;5.10;1.55;;;;;;;;;;5037209;28;20072;-74
2021/01/13 14:10:45;;;;;;;20.63;9.25;;;;;;;;;;5037100;28;20075;-74
2021/01/13 14:13:30;;;;;;;8.25;1.90;;;;;;;;;;5039914;28;20037;-75
2021/01/13 14:16:19;;;;;;;6.88;1.55;;;;;;;;;;5031898;28;20032;-76
2021/01/13 14:19:08;;;;;;;4.18;1.65;;;;;;;;;;5033259;28;20048;-76
2021/01/13 14:21:53;;;;;;;6.65;1.50;;;;;;;;;;5035712;28;20037;-78
2021/01/13 14:24:38;;;;;;;3.35;1.50;;;;;;;;;;5038686;28;20099;-74
2021/01/13 14:27:23;;;;;;;8.10;1.90;;;;;;;;;;5033542;28;20033;-73
2021/01/13 14:30:09;;;;;;;7.70;1.98;;;;;;;;;;5036641;28;20529;-73
2021/01/13 14:32:54;;;;;;;4.75;1.90;;;;;;;;;;5038284;28;20028;-74
2021/01/13 14:35:39;;;;;;;6.97;1.70;;;;;;;;;;5039937;28;20020;-74
2021/01/13 14:38:25;;;;;;;15.38;3.17;;;;;;;;;;5035252;28;20032;-76
2021/01/13 14:41:10;;;;;;;6.75;2.28;;;;;;;;;;5032855;28;20025;-77
2021/01/13 14:43:56;;;;;;;5.55;2.83;;;;;;;;;;5035234;28;20558;-76
2021/01/13 14:46:42;;;;;;;5.47;2.05;;;;;;;;;;5031769;28;20025;-77
2021/01/13 14:49:27;;;;;;;5.20;2.90;;;;;;;;;;5019165;28;20517;-76
2021/01/13 14:52:12;;;;;;;4.85;1.88;;;;;;;;;;5031772;28;20384;-76
2021/01/13 14:54:58;;;;;;;8.32;2.05;;;;;;;;;;5032166;28;20037;-77
2021/01/13 14:57:43;;;;;;;8.25;2.28;;;;;;;;;;5030904;28;20427;-75
2021/01/13 15:00:28;;;;;;;7.07;2.00;;;;;;;;;;5038549;28;20475;-75
2021/01/13 15:03:13;;;;;;;8.38;2.60;;;;;;;;;;5028632;28;20024;-75
2021/01/13 15:05:58;;;;;;;6.07;2.20;;;;;;;;;;5033779;28;20035;-75
2021/01/13 15:08:47;;;;;;;3.85;2.08;;;;;;;;;;5034037;28;20032;-77
2021/01/13 15:11:34;;;;;;;4.75;2.45;;;;;;;;;;5032771;28;20030;-76
2021/01/13 15:14:19;;;;;;;24.63;13.05;;;;;;;;;;5032720;28;20079;-77
2021/01/13 15:17:04;;;;;;;12.20;5.55;;;;;;;;;;5036025;28;20064;-75
2021/01/13 15:19:49;;;;;;;4.55;2.40;;;;;;;;;;5031651;28;20029;-75
2021/01/13 15:22:35;;;;;;;9.00;3.40;;;;;;;;;;5031155;28;20055;-76
2021/01/13 15:25:20;;;;;;;6.05;3.17;;;;;;;;;;5030275;28;20491;-77
2021/01/13 15:28:05;;;;;;;7.20;2.33;;;;;;;;;;5030944;28;20063;-76
2021/01/13 15:30:50;;;;;;;5.45;2.22;;;;;;;;;;5032587;28;20098;-76
2021/01/13 15:33:36;;;;;;;4.72;2.20;;;;;;;;;;5032199;28;20033;-75
2021/01/13 15:36:28;;;;;;;11.38;3.78;;;;;;;;;;5034869;28;20371;-74
2021/01/13 15:39:14;;;;;;;6.20;2.92;;;;;;;;;;5034155;28;20108;-75
2021/01/13 15:42:06;;;;;;;6.35;3.50;;;;;;;;;;5033076;28;20020;-75
2021/01/13 15:44:51;;;;;;;5.13;2.78;;;;;;;;;;5033156;28;20033;-77
2021/01/13 15:47:39;;;;;;;7.93;3.80;;;;;;;;;;5031103;28;20066;-75
2021/01/13 15:50:25;;;;;;;7.15;2.75;;;;;;;;;;5034426;28;20123;-74
2021/01/13 15:53:10;;;;;;;4.78;3.05;;;;;;;;;;5037934;28;20067;-74
2021/01/13 15:55:56;;;;;;;16.17;4.97;;;;;;;;;;5037536;28;20024;-74
2021/01/13 15:58:50;;;;;;;9.18;4.55;;;;;;;;;;5031214;28;20021;-74
2021/01/13 16:01:36;;;;;;;7.53;4.22;;;;;;;;;;5031676;28;20464;-74
2021/01/13 16:04:21;;;;;;;8.02;4.40;;;;;;;;;;5034417;28;20025;-75
2021/01/13 16:07:08;;;;;;;9.63;4.40;;;;;;;;;;5033576;28;20041;-74
2021/01/13 16:09:54;;;;;;;8.07;5.00;;;;;;;;;;5028494;28;20045;-76
2021/01/13 16:12:39;;;;;;;44.60;27.48;;;;;;;;;;5031345;28;20029;-76
2021/01/13 16:15:25;;;;;;;30.83;18.73;;;;;;;;;;5026790;28;20422;-75
2021/01/13 16:18:10;;;;;;;12.55;5.20;;;;;;;;;;5032072;28;20100;-74
2021/01/13 16:20:55;;;;;;;10.40;4.20;;;;;;;;;;5029723;28;20183;-75
2021/01/13 16:23:41;;;;;;;8.48;3.88;;;;;;;;;;5034220;28;20107;-74
2021/01/13 16:26:27;;;;;;;4.32;3.10;;;;;;;;;;5030129;28;20108;-76
2021/01/13 16:29:12;;;;;;;9.65;4.00;;;;;;;;;;5033590;28;20048;-75
2021/01/13 16:32:02;;;;;;;8.50;3.40;;;;;;;;;;5029198;28;20017;-77
2021/01/13 16:34:49;;;;;;;10.27;4.07;;;;;;;;;;5032677;28;20033;-74
2021/01/13 16:37:34;;;;;;;10.98;5.60;;;;;;;;;;5027862;28;20544;-76
2021/01/13 16:40:19;;;;;;;7.70;4.07;;;;;;;;;;5034477;28;20120;-76